Time;durP1;ratioP1;P1;durP2;ratioP2;P2;SDS_P1;SDS_P2;PMS_P1;PMS_P2;Temp;Humidity;BMP_temperature;BMP_pressure;BME280_temperature;BME280_humidity;BME280_pressure;Samples;Min_cycle;Max_cycle;Signal;HPM_P1;HPM_P2
2022/07/25 00:02:25;;;;;;;3.40;0.88;;;21.20;99.90;;;;;;4985298;28;20453;-82
2022/07/25 00:04:50;;;;;;;1.80;1.00;;;21.20;99.90;;;;;;4970121;28;20041;-82
2022/07/25 00:07:16;;;;;;;1.48;0.88;;;21.10;99.90;;;;;;5002745;28;20056;-80
2022/07/25 00:09:41;;;;;;;1.90;1.25;;;21.00;99.90;;;;;;4978756;28;20124;-81
2022/07/25 00:12:07;;;;;;;1.83;1.00;;;21.00;99.90;;;;;;4990943;28;20434;-83
2022/07/25 00:14:33;;;;;;;2.47;1.25;;;21.00;99.90;;;;;;5002953;28;20119;-82
2022/07/25 00:16:59;;;;;;;1.77;1.17;;;20.90;99.90;;;;;;4984989;28;20037;-83
2022/07/25 00:19:25;;;;;;;1.90;1.00;;;20.90;99.90;;;;;;4985264;28;20048;-82
2022/07/25 00:21:51;;;;;;;2.38;0.93;;;20.80;99.90;;;;;;5000841;28;20033;-80
2022/07/25 00:24:16;;;;;;;1.48;0.93;;;20.80;99.90;;;;;;4986588;28;20041;-80
2022/07/25 00:26:42;;;;;;;2.17;1.02;;;20.80;99.90;;;;;;4967725;28;20034;-80
2022/07/25 00:29:08;;;;;;;1.90;1.20;;;20.70;99.90;;;;;;4985068;28;20038;-82
2022/07/25 00:31:33;;;;;;;1.63;0.98;;;20.70;99.90;;;;;;4961506;28;20033;-80
2022/07/25 00:33:59;;;;;;;1.98;1.10;;;20.70;99.90;;;;;;5002387;28;20053;-81
2022/07/25 00:36:25;;;;;;;1.73;0.95;;;20.70;99.90;;;;;;4985541;28;20033;-81
2022/07/25 00:38:50;;;;;;;1.65;0.98;;;20.70;99.90;;;;;;4978033;28;20018;-80
2022/07/25 00:41:16;;;;;;;1.75;0.95;;;20.70;99.90;;;;;;4967229;28;20520;-79
2022/07/25 00:43:43;;;;;;;1.90;1.27;;;20.70;99.90;;;;;;4978271;28;20057;-80
2022/07/25 00:46:15;;;;;;;2.42;1.30;;;20.70;99.90;;;;;;4978929;28;20052;-79
2022/07/25 00:48:41;;;;;;;2.00;1.30;;;20.80;99.90;;;;;;4969268;28;20030;-80
2022/07/25 00:51:07;;;;;;;2.25;1.45;;;20.80;99.90;;;;;;4984501;28;20060;-80
2022/07/25 00:53:34;;;;;;;3.67;2.10;;;20.80;99.90;;;;;;4978167;28;20053;-80
2022/07/25 00:56:00;;;;;;;3.05;1.75;;;20.80;99.90;;;;;;4961993;28;20401;-80
2022/07/25 00:58:25;;;;;;;3.03;2.13;;;20.80;99.90;;;;;;4984384;28;20030;-80
2022/07/25 01:00:51;;;;;;;3.25;2.08;;;20.80;99.90;;;;;;4968020;28;20080;-81
2022/07/25 01:03:17;;;;;;;2.45;1.90;;;20.90;99.90;;;;;;4969111;28;20048;-81
2022/07/25 01:05:43;;;;;;;2.40;1.70;;;20.80;99.90;;;;;;4967727;28;20030;-81
2022/07/25 01:08:09;;;;;;;3.20;2.10;;;20.80;99.90;;;;;;5001115;28;20033;-79
2022/07/25 01:10:34;;;;;;;2.53;1.85;;;20.80;99.90;;;;;;5000509;28;20040;-79
2022/07/25 01:13:00;;;;;;;2.88;2.03;;;20.80;99.90;;;;;;5001743;28;20088;-80
2022/07/25 01:15:26;;;;;;;5.15;1.73;;;20.80;99.90;;;;;;4984187;28;21702;-80
2022/07/25 01:17:52;;;;;;;3.45;2.30;;;20.80;99.90;;;;;;4984776;28;20053;-80
2022/07/25 01:20:23;;;;;;;2.25;2.05;;;20.70;99.90;;;;;;4982681;28;20044;-80
2022/07/25 01:22:48;;;;;;;3.15;2.20;;;20.70;99.90;;;;;;5001401;28;20022;-80
2022/07/25 01:25:15;;;;;;;2.08;1.73;;;20.70;99.90;;;;;;4968114;28;20037;-81
2022/07/25 01:27:42;;;;;;;4.50;1.95;;;20.70;99.90;;;;;;4999987;28;20520;-81
2022/07/25 01:30:10;;;;;;;3.97;1.98;;;20.60;99.90;;;;;;4977846;28;20037;-80
2022/07/25 01:32:36;;;;;;;3.25;1.90;;;20.60;99.90;;;;;;5001193;28;20101;-80
2022/07/25 01:35:04;;;;;;;2.33;1.80;;;20.60;99.90;;;;;;4968481;28;20464;-80
2022/07/25 01:37:30;;;;;;;3.10;1.83;;;20.50;99.90;;;;;;4961155;28;20105;-79
2022/07/25 01:39:55;;;;;;;3.20;1.70;;;20.60;99.90;;;;;;4999877;28;20478;-79
2022/07/25 01:42:21;;;;;;;2.55;1.98;;;20.60;99.90;;;;;;4985399;28;20474;-80
2022/07/25 01:44:47;;;;;;;3.17;1.75;;;20.60;99.90;;;;;;5001685;28;20442;-80
2022/07/25 01:47:12;;;;;;;3.72;1.85;;;20.50;99.90;;;;;;4973724;28;20025;-80
2022/07/25 01:49:39;;;;;;;2.67;1.55;;;20.40;99.90;;;;;;5001371;28;20021;-81
2022/07/25 01:52:05;;;;;;;5.55;1.98;;;20.40;99.90;;;;;;4977614;28;20034;-80
2022/07/25 01:54:31;;;;;;;2.50;1.98;;;20.40;99.90;;;;;;4961741;28;20034;-80
2022/07/25 01:56:57;;;;;;;3.33;1.88;;;20.40;99.90;;;;;;5000783;28;20056;-80
2022/07/25 01:59:22;;;;;;;3.67;2.17;;;20.40;99.90;;;;;;5001146;28;20041;-80
2022/07/25 02:01:48;;;;;;;2.75;1.88;;;20.40;99.90;;;;;;4983362;28;20378;-80
2022/07/25 02:04:14;;;;;;;3.20;2.13;;;20.50;99.90;;;;;;4977493;28;20523;-80
2022/07/25 02:06:40;;;;;;;2.80;2.60;;;20.50;99.90;;;;;;4978257;28;20054;-82
2022/07/25 02:09:07;;;;;;;2.88;2.58;;;20.50;99.90;;;;;;4973007;28;20525;-80
2022/07/25 02:11:33;;;;;;;4.15;3.75;;;20.60;99.90;;;;;;4980526;28;20045;-80
2022/07/25 02:13:59;;;;;;;5.00;2.85;;;20.60;99.90;;;;;;4980206;28;20429;-81
2022/07/25 02:16:25;;;;;;;4.13;3.15;;;20.60;99.90;;;;;;4963915;28;20045;-80
2022/07/25 02:18:50;;;;;;;3.53;2.83;;;20.70;99.90;;;;;;4963161;28;20026;-81
2022/07/25 02:21:16;;;;;;;3.65;3.35;;;20.70;99.90;;;;;;4980097;28;20057;-81
2022/07/25 02:23:43;;;;;;;3.63;3.17;;;20.70;99.90;;;;;;4982854;28;20033;-80
2022/07/25 02:26:09;;;;;;;5.13;3.63;;;20.60;99.90;;;;;;4977595;28;20135;-80
2022/07/25 02:28:35;;;;;;;3.92;3.53;;;20.70;99.90;;;;;;4977542;28;20401;-80
2022/07/25 02:31:01;;;;;;;4.00;3.20;;;20.70;99.90;;;;;;4985727;28;20050;-81
2022/07/25 02:33:26;;;;;;;3.60;3.30;;;20.70;99.90;;;;;;4983207;28;20113;-80
2022/07/25 02:35:52;;;;;;;4.28;3.92;;;20.70;99.90;;;;;;4985384;28;20034;-81
2022/07/25 02:38:20;;;;;;;3.67;3.38;;;20.70;99.90;;;;;;4961594;28;20085;-80
2022/07/25 02:40:50;;;;;;;3.28;2.92;;;20.70;99.90;;;;;;4985417;28;20051;-80
2022/07/25 02:43:16;;;;;;;4.28;3.00;;;20.70;99.90;;;;;;4986143;28;20030;-81
2022/07/25 02:45:42;;;;;;;3.67;3.38;;;20.70;99.90;;;;;;4985320;28;20419;-80
2022/07/25 02:48:09;;;;;;;4.43;3.42;;;20.70;99.90;;;;;;4985094;28;20076;-82
2022/07/25 02:50:36;;;;;;;3.75;3.25;;;20.70;99.90;;;;;;4967284;28;20537;-82
2022/07/25 02:53:02;;;;;;;3.67;3.03;;;20.70;99.90;;;;;;4984857;28;20088;-82
2022/07/25 02:55:28;;;;;;;3.97;3.20;;;20.70;99.90;;;;;;4985673;28;20521;-81
2022/07/25 02:57:53;;;;;;;3.65;2.85;;;20.70;99.90;;;;;;4984351;28;20109;-80
2022/07/25 03:00:19;;;;;;;5.25;4.00;;;20.70;99.90;;;;;;4990974;28;20030;-80
2022/07/25 03:02:45;;;;;;;6.80;3.88;;;20.70;99.90;;;;;;4989417;28;20471;-81
2022/07/25 03:05:13;;;;;;;4.05;2.63;;;20.70;99.90;;;;;;4984017;28;20109;-80
2022/07/25 03:07:40;;;;;;;3.35;3.05;;;20.60;99.90;;;;;;4988408;28;20041;-81
2022/07/25 03:10:07;;;;;;;4.18;3.78;;;20.60;99.90;;;;;;4986432;28;20174;-83
2022/07/25 03:12:33;;;;;;;4.10;3.35;;;20.60;99.90;;;;;;5004163;28;20033;-80
2022/07/25 03:15:00;;;;;;;4.22;3.05;;;20.60;99.90;;;;;;4979685;28;20046;-79
2022/07/25 03:17:27;;;;;;;4.10;3.33;;;20.60;99.90;;;;;;5004249;28;20473;-80
2022/07/25 03:19:53;;;;;;;3.90;2.90;;;20.60;99.90;;;;;;5004574;28;20084;-80
2022/07/25 03:22:19;;;;;;;4.78;2.95;;;20.60;99.90;;;;;;5004221;28;20417;-80
2022/07/25 03:24:45;;;;;;;4.00;3.45;;;20.60;99.90;;;;;;4987072;28;20068;-80
2022/07/25 03:27:11;;;;;;;5.15;3.22;;;20.60;99.90;;;;;;5003556;28;20057;-80
2022/07/25 03:29:37;;;;;;;3.25;2.70;;;20.50;99.90;;;;;;4986551;28;20088;-81
2022/07/25 03:32:03;;;;;;;3.67;3.33;;;20.50;99.90;;;;;;5003476;28;20026;-79
2022/07/25 03:34:29;;;;;;;3.72;3.08;;;20.50;99.90;;;;;;4992250;28;20044;-79
2022/07/25 03:36:54;;;;;;;3.85;3.08;;;20.50;99.90;;;;;;4986054;28;20038;-81
2022/07/25 03:39:20;;;;;;;3.83;3.05;;;20.40;99.90;;;;;;4971032;28;20038;-80
2022/07/25 03:41:46;;;;;;;3.90;3.13;;;20.40;99.90;;;;;;4987664;28;21735;-81
2022/07/25 03:44:12;;;;;;;4.72;3.15;;;20.50;99.90;;;;;;4978994;28;20041;-81
2022/07/25 03:46:38;;;;;;;5.55;3.30;;;20.40;99.90;;;;;;4967659;28;20029;-80
2022/07/25 03:49:04;;;;;;;5.10;3.25;;;20.40;99.90;;;;;;4968063;28;20034;-80
2022/07/25 03:51:30;;;;;;;3.63;3.15;;;20.40;99.90;;;;;;4963597;28;20037;-79
2022/07/25 03:54:01;;;;;;;3.72;2.75;;;20.40;99.90;;;;;;4962080;28;20473;-81
2022/07/25 03:56:34;;;;;;;4.50;2.70;;;20.40;99.90;;;;;;4970075;28;20041;-79
2022/07/25 03:59:00;;;;;;;3.80;2.63;;;20.40;99.90;;;;;;4963332;28;20037;-80
2022/07/25 04:01:25;;;;;;;4.05;3.53;;;20.30;99.90;;;;;;4975581;28;20064;-80
2022/07/25 04:03:51;;;;;;;3.30;2.40;;;20.30;99.90;;;;;;4977435;28;20401;-80
2022/07/25 04:06:17;;;;;;;4.57;2.92;;;20.40;99.90;;;;;;4986313;28;20040;-79
2022/07/25 04:08:43;;;;;;;3.40;2.88;;;20.40;99.90;;;;;;4985355;28;20053;-81
2022/07/25 04:11:08;;;;;;;3.63;3.13;;;20.40;99.90;;;;;;4990658;28;20042;-80
2022/07/25 04:13:34;;;;;;;3.85;2.83;;;20.40;99.90;;;;;;4979979;28;20033;-81
2022/07/25 04:16:00;;;;;;;4.20;3.42;;;20.40;99.90;;;;;;4991430;28;20030;-83
2022/07/25 04:18:25;;;;;;;3.70;3.28;;;20.40;99.90;;;;;;4984411;28;20196;-82
2022/07/25 04:20:51;;;;;;;4.70;2.90;;;20.40;99.90;;;;;;4984321;28;20104;-80
2022/07/25 04:23:16;;;;;;;3.03;2.72;;;20.50;99.90;;;;;;4999031;28;20399;-81
2022/07/25 04:25:42;;;;;;;4.97;3.30;;;20.50;99.90;;;;;;4984764;28;20438;-79
2022/07/25 04:28:08;;;;;;;4.93;3.70;;;20.60;99.90;;;;;;4979273;28;20028;-79
2022/07/25 04:30:34;;;;;;;5.13;3.50;;;20.60;99.90;;;;;;4965969;28;20057;-80
2022/07/25 04:32:59;;;;;;;5.28;3.65;;;20.60;99.90;;;;;;4985484;28;20158;-82
2022/07/25 04:35:25;;;;;;;3.85;3.10;;;20.70;99.90;;;;;;4985523;28;20121;-81
2022/07/25 04:37:51;;;;;;;3.65;3.20;;;20.80;99.90;;;;;;4968237;28;20044;-80
2022/07/25 04:40:16;;;;;;;4.68;3.10;;;20.80;99.90;;;;;;5002412;28;20037;-83
2022/07/25 04:42:42;;;;;;;3.40;3.10;;;20.80;99.90;;;;;;4968352;28;20112;-84
2022/07/25 04:45:08;;;;;;;3.63;2.55;;;20.80;99.90;;;;;;5001369;28;20132;-82
2022/07/25 04:47:34;;;;;;;4.00;2.70;;;20.90;99.90;;;;;;4982636;28;20041;-79
2022/07/25 04:50:00;;;;;;;4.15;2.95;;;20.90;99.90;;;;;;4978390;28;20397;-81
2022/07/25 04:52:26;;;;;;;3.20;2.60;;;20.90;99.90;;;;;;5001930;28;20030;-79
2022/07/25 04:54:51;;;;;;;4.35;2.72;;;20.90;99.90;;;;;;5001106;28;20109;-82
2022/07/25 04:57:17;;;;;;;3.40;2.45;;;20.90;99.90;;;;;;4966700;28;20034;-80
2022/07/25 04:59:43;;;;;;;4.05;2.90;;;20.90;99.90;;;;;;5001996;28;20120;-82
2022/07/25 05:02:09;;;;;;;4.50;3.10;;;20.90;99.90;;;;;;4977037;28;20492;-82
2022/07/25 05:04:34;;;;;;;4.43;2.92;;;21.00;99.90;;;;;;4984166;28;20029;-80
2022/07/25 05:07:00;;;;;;;8.20;3.33;;;21.00;99.90;;;;;;5001523;28;20081;-80
2022/07/25 05:09:26;;;;;;;3.95;3.28;;;21.10;99.90;;;;;;4979816;28;20074;-82
2022/07/25 05:11:52;;;;;;;3.33;3.03;;;21.20;99.90;;;;;;4994979;28;20442;-80
2022/07/25 05:14:18;;;;;;;3.05;2.38;;;21.20;99.90;;;;;;4984587;28;20030;-85
2022/07/25 05:16:43;;;;;;;2.85;2.42;;;21.30;99.90;;;;;;4974239;28;20062;-80
2022/07/25 05:19:09;;;;;;;6.68;3.17;;;21.60;99.90;;;;;;4981489;28;20030;-83
2022/07/25 05:21:35;;;;;;;5.13;2.58;;;21.70;99.90;;;;;;4964133;28;20034;-84
2022/07/25 05:24:00;;;;;;;4.05;2.60;;;21.80;99.90;;;;;;4963924;28;20027;-84
2022/07/25 05:26:26;;;;;;;3.92;2.88;;;21.80;99.90;;;;;;4976358;28;20102;-83
2022/07/25 05:28:52;;;;;;;6.75;3.05;;;21.80;99.90;;;;;;4959295;28;20031;-82
2022/07/25 05:31:17;;;;;;;4.00;2.20;;;21.80;99.90;;;;;;4980088;28;20036;-85
2022/07/25 05:33:43;;;;;;;4.70;2.80;;;22.00;99.90;;;;;;4977020;28;20474;-88
2022/07/25 05:36:09;;;;;;;3.88;2.30;;;22.10;99.90;;;;;;4980308;28;20045;-84
2022/07/25 05:38:34;;;;;;;8.68;2.53;;;22.20;99.90;;;;;;4980801;28;20034;-80
2022/07/25 05:41:00;;;;;;;2.97;2.45;;;22.30;99.90;;;;;;4982210;28;20109;-81
2022/07/25 05:43:25;;;;;;;3.83;2.28;;;22.40;99.90;;;;;;4980728;28;20030;-81
2022/07/25 05:45:52;;;;;;;5.18;2.42;;;22.40;99.90;;;;;;4978602;28;20049;-82
2022/07/25 05:48:17;;;;;;;2.95;2.50;;;22.50;99.90;;;;;;4983696;28;20164;-83
2022/07/25 05:50:44;;;;;;;4.53;2.47;;;22.50;99.90;;;;;;4957341;28;20133;-80
2022/07/25 05:53:11;;;;;;;3.30;2.15;;;22.50;99.90;;;;;;4979240;28;20132;-82
2022/07/25 05:55:37;;;;;;;3.75;1.88;;;22.70;99.90;;;;;;4995490;28;20052;-80
2022/07/25 05:58:03;;;;;;;3.53;2.53;;;22.80;99.90;;;;;;4987474;28;20030;-81
2022/07/25 06:00:29;;;;;;;5.50;2.42;;;22.80;99.90;;;;;;4977779;28;20042;-81
2022/07/25 06:02:59;;;;;;;5.00;2.40;;;22.90;99.90;;;;;;4999349;28;20034;-81
2022/07/25 06:05:25;;;;;;;3.60;2.38;;;22.90;99.90;;;;;;5000006;28;20026;-81
2022/07/25 06:07:50;;;;;;;3.35;2.83;;;22.90;99.90;;;;;;4978519;28;20050;-82
2022/07/25 06:10:16;;;;;;;3.08;2.42;;;22.90;99.90;;;;;;5000939;28;20053;-81
2022/07/25 06:12:42;;;;;;;4.80;1.90;;;23.00;99.90;;;;;;4978946;28;20018;-81
2022/07/25 06:15:08;;;;;;;3.17;2.05;;;23.10;99.90;;;;;;4973942;28;20057;-82
2022/07/25 06:17:34;;;;;;;4.65;2.47;;;23.20;99.90;;;;;;4984010;28;20031;-81
2022/07/25 06:19:59;;;;;;;4.32;2.17;;;23.30;99.90;;;;;;5000482;28;20402;-83
2022/07/25 06:22:25;;;;;;;4.10;1.92;;;23.50;99.90;;;;;;4977793;28;20041;-83
2022/07/25 06:24:50;;;;;;;4.88;2.60;;;23.50;99.90;;;;;;4967008;28;20034;-82
2022/07/25 06:27:16;;;;;;;4.22;2.92;;;23.60;99.90;;;;;;4966667;28;20026;-83
2022/07/25 06:29:42;;;;;;;3.42;1.90;;;23.50;99.90;;;;;;4965506;28;20165;-84
2022/07/25 06:32:07;;;;;;;6.63;2.78;;;23.50;99.90;;;;;;4966377;28;20137;-84
2022/07/25 06:34:33;;;;;;;4.75;2.60;;;23.50;99.90;;;;;;4966116;28;20113;-84
2022/07/25 06:36:59;;;;;;;5.10;2.33;;;23.50;99.90;;;;;;4975540;28;20018;-81
2022/07/25 06:39:26;;;;;;;3.17;2.28;;;23.50;99.90;;;;;;4972401;28;20019;-84
2022/07/25 06:41:52;;;;;;;4.57;2.72;;;23.60;99.90;;;;;;5000975;28;20022;-82
2022/07/25 06:44:18;;;;;;;8.45;4.55;;;23.70;99.90;;;;;;4971022;28;20023;-84
2022/07/25 06:46:44;;;;;;;5.22;4.60;;;23.60;99.90;;;;;;4972973;28;20034;-84
2022/07/25 06:49:09;;;;;;;3.50;3.10;;;23.70;99.90;;;;;;4978242;28;20146;-85
2022/07/25 06:51:35;;;;;;;7.32;4.80;;;23.90;99.90;;;;;;4988357;28;20061;-83
2022/07/25 06:54:01;;;;;;;8.05;4.47;;;24.00;99.90;;;;;;4972062;28;20085;-84
2022/07/25 06:56:30;;;;;;;5.35;4.45;;;23.80;99.90;;;;;;4988815;28;20048;-84
2022/07/25 06:58:56;;;;;;;5.63;4.65;;;23.80;99.90;;;;;;4967400;28;20578;-81
2022/07/25 07:01:22;;;;;;;5.15;4.47;;;23.80;99.90;;;;;;4979401;28;20052;-83
2022/07/25 07:03:48;;;;;;;6.00;5.40;;;23.50;99.90;;;;;;4980479;28;20034;-83
2022/07/25 07:06:13;;;;;;;5.53;4.85;;;23.40;99.90;;;;;;4971801;28;20038;-84
2022/07/25 07:08:39;;;;;;;9.02;6.25;;;23.30;99.90;;;;;;4970290;28;20037;-83
2022/07/25 07:11:05;;;;;;;8.43;5.32;;;23.40;99.90;;;;;;4970479;28;20065;-84
2022/07/25 07:13:31;;;;;;;7.32;5.20;;;23.50;99.90;;;;;;4969674;28;20122;-83
2022/07/25 07:15:56;;;;;;;8.52;6.30;;;23.80;99.90;;;;;;4978693;28;20067;-85
2022/07/25 07:18:22;;;;;;;8.55;5.53;;;24.00;99.90;;;;;;4989365;28;20038;-84
2022/07/25 07:20:48;;;;;;;7.05;6.25;;;23.90;99.90;;;;;;4985957;28;20050;-82
2022/07/25 07:23:14;;;;;;;6.78;5.88;;;23.80;99.90;;;;;;4981293;28;20036;-83
2022/07/25 07:25:40;;;;;;;6.15;4.47;;;24.20;99.90;;;;;;4961235;28;20038;-81
2022/07/25 07:28:06;;;;;;;5.38;4.85;;;24.50;99.90;;;;;;4974811;28;20030;-82
2022/07/25 07:30:32;;;;;;;5.65;3.35;;;24.90;99.90;;;;;;4989895;28;20022;-83
2022/07/25 07:32:58;;;;;;;7.72;4.88;;;24.60;99.90;;;;;;4969537;28;20045;-82
2022/07/25 07:35:24;;;;;;;4.72;4.18;;;24.40;99.90;;;;;;4971238;28;20463;-83
2022/07/25 07:37:54;;;;;;;8.32;4.97;;;24.50;99.90;;;;;;4975369;28;20034;-85
2022/07/25 07:40:21;;;;;;;5.50;4.68;;;24.40;99.90;;;;;;4958022;28;20065;-83
2022/07/25 07:42:48;;;;;;;7.38;4.35;;;24.40;99.90;;;;;;4980055;28;20074;-83
2022/07/25 07:45:22;;;;;;;6.07;3.97;;;24.80;99.90;;;;;;4982303;28;20081;-82
2022/07/25 07:47:49;;;;;;;6.75;4.95;;;24.90;99.90;;;;;;4980472;28;20192;-82
2022/07/25 07:50:17;;;;;;;6.72;4.65;;;24.30;99.90;;;;;;4979315;28;20106;-82
2022/07/25 07:52:43;;;;;;;4.68;3.55;;;24.20;99.90;;;;;;4968596;28;20037;-83
2022/07/25 07:57:54;;;;;;;5.15;2.83;;;24.10;99.90;;;;;;4979977;28;20026;-84
2022/07/25 08:00:21;;;;;;;4.40;3.67;;;24.00;99.90;;;;;;4978595;28;20093;-83
2022/07/25 08:02:49;;;;;;;7.70;3.00;;;23.90;99.90;;;;;;4972854;28;20045;-82
2022/07/25 08:05:25;;;;;;;7.40;2.85;;;23.80;99.90;;;;;;4980974;28;20034;-85
2022/07/25 08:07:52;;;;;;;3.30;2.65;;;23.70;99.90;;;;;;4975366;28;20458;-84
2022/07/25 08:10:31;;;;;;;4.90;3.15;;;23.80;99.90;;;;;;4975224;28;20088;-82
2022/07/25 08:12:58;;;;;;;3.58;2.33;;;23.80;99.90;;;;;;4981709;28;20089;-83
2022/07/25 08:15:24;;;;;;;3.42;2.45;;;24.00;99.90;;;;;;4974441;28;20462;-82
2022/07/25 08:17:50;;;;;;;6.47;2.70;;;24.20;99.90;;;;;;4980734;28;20117;-83
2022/07/25 08:20:17;;;;;;;4.95;2.58;;;24.30;99.90;;;;;;4981373;28;20046;-82
2022/07/25 08:22:45;;;;;;;3.78;2.38;;;24.50;99.90;;;;;;4998027;28;20030;-85
2022/07/25 08:25:16;;;;;;;4.22;2.50;;;24.40;99.90;;;;;;4990165;28;20030;-85
2022/07/25 08:27:43;;;;;;;6.43;2.22;;;24.10;99.90;;;;;;4958732;28;20474;-83
2022/07/25 08:30:10;;;;;;;5.28;2.03;;;23.90;99.90;;;;;;4957095;28;20041;-82
2022/07/25 08:32:50;;;;;;;4.32;2.08;;;24.00;99.90;;;;;;4978553;28;20034;-83
2022/07/25 08:35:18;;;;;;;6.50;2.13;;;24.00;99.90;;;;;;4974760;28;20165;-84
2022/07/25 08:37:44;;;;;;;4.07;1.85;;;24.00;99.90;;;;;;4959234;28;20030;-84
2022/07/25 08:40:11;;;;;;;2.33;1.27;;;24.00;99.90;;;;;;4963681;28;20077;-83
2022/07/25 08:42:37;;;;;;;2.80;1.20;;;24.10;99.90;;;;;;4963646;28;20124;-84
2022/07/25 08:45:05;;;;;;;1.85;1.08;;;24.40;99.90;;;;;;4981181;28;20040;-82
2022/07/25 08:47:31;;;;;;;2.75;0.90;;;25.10;99.90;;;;;;4996108;28;20160;-81
2022/07/25 08:49:57;;;;;;;3.65;1.35;;;25.10;99.90;;;;;;4981889;28;20132;-83
2022/07/25 08:52:23;;;;;;;2.40;1.15;;;25.20;99.90;;;;;;4981108;28;20057;-81
2022/07/25 08:54:50;;;;;;;1.70;0.70;;;25.50;99.90;;;;;;4970316;28;20125;-81
2022/07/25 08:57:16;;;;;;;2.03;0.65;;;25.90;99.90;;;;;;4976462;28;20076;-83
2022/07/25 08:59:42;;;;;;;1.83;0.70;;;25.80;99.90;;;;;;4980153;28;20450;-83
2022/07/25 09:02:13;;;;;;;1.50;0.70;;;25.30;99.90;;;;;;4979345;28;20085;-82
2022/07/25 09:04:39;;;;;;;1.67;0.60;;;25.20;99.90;;;;;;4974427;28;20487;-86
2022/07/25 09:07:06;;;;;;;1.33;0.70;;;25.80;99.90;;;;;;4964008;28;20030;-82
2022/07/25 09:09:34;;;;;;;2.83;0.52;;;26.40;99.90;;;;;;4999908;28;20042;-83
2022/07/25 09:12:00;;;;;;;1.58;0.50;;;26.00;99.90;;;;;;4977948;28;20483;-81
2022/07/25 09:14:27;;;;;;;0.93;0.40;;;26.10;99.90;;;;;;5002284;28;20169;-84
2022/07/25 09:16:53;;;;;;;1.58;0.50;;;26.20;99.90;;;;;;4961232;28;20080;-84
2022/07/25 09:19:22;;;;;;;1.27;0.40;;;26.10;99.90;;;;;;4973778;28;20433;-82
2022/07/25 09:22:07;;;;;;;1.85;0.40;;;26.40;99.90;;;;;;5001351;28;20037;-82
2022/07/25 09:24:34;;;;;;;1.08;0.38;;;26.00;99.90;;;;;;5001106;28;20026;-85
2022/07/25 09:27:08;;;;;;;2.65;0.32;;;26.30;99.90;;;;;;4984135;28;20049;-82
2022/07/25 09:29:35;;;;;;;1.27;0.47;;;26.20;99.90;;;;;;4961464;28;20141;-85
2022/07/25 09:32:12;;;;;;;1.25;0.40;;;26.20;99.90;;;;;;5002499;28;21767;-83
2022/07/25 09:34:40;;;;;;;3.35;0.30;;;26.20;99.90;;;;;;4987363;28;20042;-83
2022/07/25 09:37:08;;;;;;;1.50;0.40;;;26.50;99.90;;;;;;4964832;28;20033;-82
2022/07/25 09:39:39;;;;;;;1.40;0.40;;;26.40;99.90;;;;;;5003996;28;20375;-86
2022/07/25 09:42:14;;;;;;;2.25;0.30;;;26.20;99.90;;;;;;4970688;28;20029;-83
2022/07/25 09:44:40;;;;;;;1.08;0.30;;;26.90;99.90;;;;;;4964833;28;20489;-83
2022/07/25 09:47:13;;;;;;;1.77;0.30;;;27.00;99.90;;;;;;4986841;28;20045;-87
2022/07/25 09:49:43;;;;;;;2.92;0.40;;;27.20;99.90;;;;;;4981401;28;20034;-81
2022/07/25 09:52:10;;;;;;;4.22;0.30;;;26.30;99.90;;;;;;4963386;28;20488;-85
2022/07/25 09:54:38;;;;;;;3.40;0.30;;;25.80;99.90;;;;;;4986644;28;20030;-85
2022/07/25 09:57:03;;;;;;;1.75;0.30;;;25.90;99.90;;;;;;5002720;28;20131;-82
2022/07/25 09:59:29;;;;;;;1.60;0.30;;;26.00;99.90;;;;;;5007729;28;20042;-86
2022/07/25 10:02:20;;;;;;;3.47;0.30;;;26.10;99.90;;;;;;4994949;28;20030;-86
2022/07/25 10:05:12;;;;;;;1.35;0.30;;;26.50;99.90;;;;;;4970975;28;20561;-87
2022/07/25 10:07:48;;;;;;;4.57;0.30;;;26.30;99.90;;;;;;4962883;28;20049;-83
2022/07/25 10:10:20;;;;;;;2.33;0.20;;;25.70;99.90;;;;;;4999718;28;20034;-85
2022/07/25 10:13:09;;;;;;;1.00;0.20;;;25.50;99.90;;;;;;4980700;28;20470;-82
2022/07/25 10:15:45;;;;;;;2.58;0.30;;;26.20;99.90;;;;;;4988176;28;20755;-88
2022/07/25 10:18:12;;;;;;;0.40;0.13;;;26.20;99.90;;;;;;4965549;28;20065;-82
2022/07/25 10:20:38;;;;;;;0.40;0.10;;;26.50;99.90;;;;;;5002731;28;20055;-85
2022/07/25 10:23:15;;;;;;;1.85;0.22;;;26.70;99.90;;;;;;4994372;28;20553;-87
2022/07/25 10:25:40;;;;;;;2.55;0.30;;;26.40;99.90;;;;;;5002591;28;20112;-82
2022/07/25 10:28:08;;;;;;;2.60;0.25;;;26.40;99.90;;;;;;4968499;28;20124;-83
2022/07/25 10:30:38;;;;;;;1.33;0.10;;;26.10;99.90;;;;;;4988095;28;20030;-85
2022/07/25 10:33:12;;;;;;;2.05;0.20;;;26.40;99.90;;;;;;5004496;28;20022;-86
2022/07/25 10:35:38;;;;;;;1.67;0.20;;;26.80;99.90;;;;;;4987540;28;20706;-82
2022/07/25 10:38:05;;;;;;;0.75;0.20;;;26.20;99.90;;;;;;4987896;28;20096;-86
2022/07/25 10:40:37;;;;;;;1.70;0.30;;;26.10;99.90;;;;;;5003400;28;21542;-85
2022/07/25 10:43:18;;;;;;;1.98;0.20;;;26.10;99.90;;;;;;4980762;28;20029;-84
2022/07/25 10:45:57;;;;;;;2.33;0.20;;;25.70;99.90;;;;;;5007594;28;20084;-90
2022/07/25 10:48:24;;;;;;;2.73;0.30;;;25.60;99.90;;;;;;4987898;28;20117;-83
2022/07/25 10:50:51;;;;;;;2.22;0.22;;;26.20;99.90;;;;;;4968020;28;20285;-88
2022/07/25 10:53:30;;;;;;;2.17;0.30;;;25.90;99.90;;;;;;4980061;28;20045;-85
2022/07/25 10:56:08;;;;;;;1.20;0.20;;;25.70;99.90;;;;;;4998195;28;20030;-91
2022/07/25 10:58:58;;;;;;;1.63;0.30;;;25.30;99.90;;;;;;4970899;28;20037;-84
2022/07/25 11:01:25;;;;;;;2.08;0.30;;;25.40;99.90;;;;;;4977919;28;20041;-83
2022/07/25 11:03:53;;;;;;;1.92;0.40;;;25.60;99.90;;;;;;5011024;28;20226;-86
2022/07/25 11:06:36;;;;;;;2.08;0.30;;;25.50;99.90;;;;;;4996026;28;20102;-91
2022/07/25 11:09:25;;;;;;;3.33;0.40;;;25.50;99.90;;;;;;5009512;28;20045;-88
2022/07/25 11:11:52;;;;;;;;;;;25.60;99.90;;;;;;4998193;28;20489;-90
2022/07/25 11:14:21;;;;;;;1.17;0.30;;;25.80;99.90;;;;;;4996856;28;19909;-84
2022/07/25 11:16:49;;;;;;;1.30;0.32;;;26.20;99.90;;;;;;4987161;28;20023;-86
2022/07/25 11:19:21;;;;;;;1.23;0.35;;;25.90;99.90;;;;;;5010939;28;20028;-87
2022/07/25 11:21:50;;;;;;;2.05;0.30;;;25.70;99.90;;;;;;5010020;28;20030;-84
2022/07/25 11:24:15;;;;;;;1.48;0.30;;;25.50;99.90;;;;;;4987492;28;20033;-85
2022/07/25 11:26:46;;;;;;;0.93;0.22;;;25.70;99.90;;;;;;4981296;28;20037;-91
2022/07/25 11:29:23;;;;;;;0.98;0.20;;;25.40;99.90;;;;;;4991627;28;21981;-88
2022/07/25 11:32:09;;;;;;;1.60;0.20;;;25.40;99.90;;;;;;4995583;28;20430;-85
2022/07/25 11:34:37;;;;;;;1.50;0.20;;;25.30;99.90;;;;;;5009658;28;20025;-87
2022/07/25 11:37:05;;;;;;;1.05;0.28;;;25.50;99.90;;;;;;4993617;28;20038;-89
2022/07/25 11:39:34;;;;;;;2.50;0.30;;;25.00;99.90;;;;;;4994613;28;20034;-83
2022/07/25 11:42:04;;;;;;;6.20;0.40;;;25.10;99.90;;;;;;4994473;28;20029;-82
2022/07/25 11:44:31;;;;;;;2.97;0.40;;;24.80;99.90;;;;;;4967286;28;20054;-82
2022/07/25 11:46:56;;;;;;;1.75;0.40;;;24.70;99.90;;;;;;4986297;28;20034;-85
2022/07/25 11:49:22;;;;;;;2.63;0.40;;;24.90;99.90;;;;;;5011085;28;20037;-86
2022/07/25 11:51:47;;;;;;;1.30;0.30;;;24.90;99.90;;;;;;4992563;28;20034;-84
2022/07/25 11:54:15;;;;;;;1.50;0.40;;;24.90;99.90;;;;;;4985691;28;20037;-83
2022/07/25 11:56:42;;;;;;;2.53;0.30;;;25.00;99.90;;;;;;5012412;28;20597;-89
2022/07/25 11:59:08;;;;;;;2.70;0.30;;;24.70;99.90;;;;;;4978430;28;20180;-87
2022/07/25 12:01:39;;;;;;;2.25;0.40;;;24.80;99.90;;;;;;5009984;28;20041;-87
2022/07/25 12:04:18;;;;;;;2.05;0.30;;;25.00;99.90;;;;;;4986179;28;20034;-87
2022/07/25 12:06:46;;;;;;;2.97;0.40;;;25.20;99.90;;;;;;4969492;28;20061;-82
2022/07/25 12:09:18;;;;;;;7.13;0.55;;;24.90;99.90;;;;;;5010898;28;20069;-88
2022/07/25 12:11:44;;;;;;;3.20;0.40;;;24.90;99.90;;;;;;4995482;28;20036;-88
2022/07/25 12:14:11;;;;;;;2.30;0.40;;;24.80;99.90;;;;;;4970946;28;20912;-88
2022/07/25 12:16:37;;;;;;;2.47;0.50;;;24.70;99.90;;;;;;4977033;28;20040;-88
2022/07/25 12:19:07;;;;;;;5.95;0.50;;;24.70;99.90;;;;;;4993227;28;20033;-86
2022/07/25 12:21:33;;;;;;;3.90;0.43;;;24.90;99.90;;;;;;4974181;28;20033;-82
2022/07/25 12:23:58;;;;;;;2.15;0.30;;;25.20;99.90;;;;;;5010432;28;20513;-84
2022/07/25 12:26:24;;;;;;;3.88;0.40;;;25.00;99.90;;;;;;5009965;28;20481;-88
2022/07/25 12:28:50;;;;;;;4.20;0.50;;;24.90;99.90;;;;;;4978876;28;20033;-89
2022/07/25 12:31:15;;;;;;;2.92;0.50;;;25.20;99.90;;;;;;4992637;28;20029;-88
2022/07/25 12:33:41;;;;;;;2.45;0.47;;;25.00;99.90;;;;;;4993553;28;20018;-85
2022/07/25 12:36:10;;;;;;;1.45;0.57;;;24.90;99.90;;;;;;4987402;28;20033;-84
2022/07/25 12:38:36;;;;;;;4.85;0.32;;;24.70;99.90;;;;;;4974134;28;20142;-85
2022/07/25 12:41:01;;;;;;;2.63;0.40;;;24.90;99.90;;;;;;4992642;28;20133;-86
2022/07/25 12:43:27;;;;;;;2.88;0.52;;;24.90;99.90;;;;;;5008942;28;20037;-82
2022/07/25 12:45:53;;;;;;;5.53;0.57;;;24.60;99.90;;;;;;4987704;28;20773;-89
2022/07/25 12:48:18;;;;;;;2.45;0.70;;;24.50;99.90;;;;;;4992995;28;20021;-84
2022/07/25 12:50:44;;;;;;;2.90;0.47;;;24.30;99.90;;;;;;4972808;28;20390;-83
2022/07/25 12:53:12;;;;;;;3.35;0.50;;;24.10;99.90;;;;;;4976250;28;20128;-82